Etusivu
METAR-TAF:

METAR-TAF

Lentoasemat :

İzmir, Turkki

Leveyspiiri: 38-30N, Pituuspiiri: 027-01E, korkeus merenpinnasta: 5 m

Tämänhetkinen sää

Tämä raportti tehtiin 24 minuuttia sitten, kello 11.05 UTC
Tuuli 2 kn eri suunnista
Lämpötila 17°C
Kosteus 59%
Ilmanpaine 1014 hPa
Näkyvyys 10 km tai enemmän
Muutamia pilviä 4000 ft:n korkeudessa
Hajonneita pilviä 10000 ft:n korkeudessa

METAR: LTBL 041105Z VRB02KT 9999 FEW040 BKN100 17/09 Q1014 RESHRA NOSIG RMK RWY17 14003KT 090V210

Aika: 14:29 (11:29 UTC)

Sääennuste

Tämä raportti tehtiin 3 tuntia ja 49 minuuttia sitten, kello 07.40 UTC
Ennuste voimassa 04. päivästä klo 09 UTC - 04. päivään klo 18 UTC
Tuuli 9 kn idästä/kaakosta
Näkyvyys: 7000 m
Muutamia pilviä 3500 ft:n korkeudessa
Hajanaisia pilviä 10000 ft:n korkeudessa
Hajonneita pilviä 20000 ft:n korkeudessa

TAF: LTBL 040740Z 0409/0418 12009KT 7000 FEW035 SCT100 BKN200

Säähavainnot ja -ennusteet yli 4000 lentoasemalta (METAR- ja TAF-raportit).

Käytössä olevat sääasemat on merkitty karttaan keltaisilla ja punaisilla pisteillä.

Aseta hiiri pisteen päälle nähdäksesi sääaseman nimen.

Klikkaa sitten nähdäksesi säähavainnot ja -ennusteet.

Kartan vaihtaminen: klikkaa mustalla rastilla varustettuja vihreitä pisteitä, niin voit zoomata sisään; viivalla varustettua vihreää pistettä, niin voit zoomata ulos tai vihreitä nuolia, niin pääset viereisille kartoille.


METAR-TAF: